EFKK/KOK METAR and TAF weather

Enter ICAO airport designator
Station Type Date Time Source
EFKK METAR 2018/07/21 12:50 UTC NOAA

EFKK 211250Z 08008KT 010V140 9999 FEW033TCU BKN075 27/17 Q1004


Station Type Date Time Source
EFKK Decoded METAR 2018/07/21 12:50 UTC NOAA

Kruunupyy, Finland (EFKK) 63-43N 023-09E
Jul 21, 2018 - 08:50 AM EDT / 2018.07.21 1250 UTC
Wind: from the E (080 degrees) at 9 MPH (8 KT) (direction variable):0
Visibility: greater than 7 mile(s):0
Sky conditions: mostly cloudy
Weather: Towering cumulus clouds observed
Temperature: 80 F (27 C)
Dew Point: 62 F (17 C)
Relative Humidity: 54%
Pressure (altimeter): 29.65 in. Hg (1004 hPa)
ob: EFKK 211250Z 08008KT 010V140 9999 FEW033TCU BKN075 27/17 Q1004
cycle: 13

Station Type Date Time Source
EFKK TAF 2013/12/22 09:42 UTC NOAA

TAF EFKK 220834Z 2209/2221 20009KT 9999 OVC007
TEMPO 2209/2211 6000 -DZ BKN003
BECMG 2211/2213 6000 RA
TEMPO 2213/2221 BKN011


Example: see airport list